Time;durP1;ratioP1;P1;durP2;ratioP2;P2;SDS_P1;SDS_P2;PMS_P1;PMS_P2;Temp;Humidity;BMP_temperature;BMP_pressure;BME280_temperature;BME280_humidity;BME280_pressure;Samples;Min_cycle;Max_cycle;Signal;HPM_P1;HPM_P2
2022/04/10 00:01:29;;;;;;;8.53;4.83;;;;;;;3.36;68.42;99454.02;1723252;81;26120;-77
2022/04/10 00:03:56;;;;;;;8.10;4.78;;;;;;;3.35;68.36;99452.97;1698871;83;25700;-77
2022/04/10 00:06:24;;;;;;;9.25;5.15;;;;;;;3.31;69.28;99454.08;1723408;83;25621;-76
2022/04/10 00:08:51;;;;;;;8.03;4.60;;;;;;;3.27;68.89;99457.58;1723418;83;25549;-76
2022/04/10 00:11:18;;;;;;;7.65;5.08;;;;;;;3.23;68.40;99463.23;1723404;83;27364;-76
2022/04/10 00:13:44;;;;;;;7.22;4.72;;;;;;;3.18;69.15;99466.22;1698570;83;25579;-76
2022/04/10 00:16:14;;;;;;;10.90;5.12;;;;;;;3.13;68.73;99464.93;1723494;83;25547;-76
2022/04/10 00:19:05;;;;;;;;;;;;;;;3.09;68.53;99471.10;1726297;83;25456;-76
2022/04/10 00:22:19;;;;;;;8.98;5.03;;;;;;;3.04;68.62;99469.26;1586683;88;25540;-77
2022/04/10 00:24:46;;;;;;;11.93;5.40;;;;;;;2.97;68.58;99466.11;1452179;98;27394;-76
2022/04/10 00:27:14;;;;;;;10.55;5.17;;;;;;;2.89;68.89;99475.50;1451882;98;25887;-76
2022/04/10 00:29:41;;;;;;;6.80;4.90;;;;;;;2.85;69.46;99473.68;1451900;98;25570;-77
2022/04/10 00:32:10;;;;;;;8.33;5.08;;;;;;;2.80;69.98;99481.18;1452046;98;26210;-77
2022/04/10 00:34:36;;;;;;;9.57;5.43;;;;;;;2.76;70.53;99480.15;1452370;98;25324;-76
2022/04/10 00:37:03;;;;;;;7.05;4.97;;;;;;;2.71;70.38;99483.64;1452117;98;27413;-76
2022/04/10 00:39:29;;;;;;;7.97;5.40;;;;;;;2.69;70.13;99492.47;1452003;98;25817;-76
2022/04/10 00:41:57;;;;;;;8.73;5.50;;;;;;;2.67;70.73;99489.80;1452066;98;25272;-76
2022/04/10 00:44:23;;;;;;;8.23;4.80;;;;;;;2.66;71.25;99491.69;1452040;98;25766;-76
2022/04/10 00:46:52;;;;;;;7.47;4.83;;;;;;;2.63;72.39;99489.55;1452262;98;25688;-76
2022/04/10 00:49:39;;;;;;;6.80;4.50;;;;;;;2.61;71.11;99487.70;1453446;98;27398;-75
2022/04/10 00:52:09;;;;;;;7.53;5.72;;;;;;;2.60;71.68;99486.09;1391408;103;25458;-75
2022/04/10 00:54:36;;;;;;;7.30;5.35;;;;;;;2.57;71.31;99492.80;1390961;103;25622;-75
2022/04/10 00:57:03;;;;;;;9.75;5.67;;;;;;;2.56;71.81;99499.75;1392177;103;25379;-75
2022/04/10 00:59:30;;;;;;;10.32;5.05;;;;;;;2.53;71.30;99497.63;1456026;97;25297;-75
2022/04/10 01:01:57;;;;;;;11.60;5.12;;;;;;;2.49;71.43;99504.59;1525973;88;27227;-75
2022/04/10 01:04:25;;;;;;;10.10;5.73;;;;;;;2.46;71.60;99515.27;1612968;89;25321;-76
2022/04/10 01:06:53;;;;;;;9.00;5.30;;;;;;;2.44;71.51;99512.08;1585895;90;25321;-76
2022/04/10 01:09:20;;;;;;;7.03;4.60;;;;;;;2.39;72.68;99506.77;1612224;89;25561;-75
2022/04/10 01:11:47;;;;;;;9.20;4.72;;;;;;;2.36;72.14;99521.44;1583716;90;25718;-75
2022/04/10 01:14:14;;;;;;;8.25;4.78;;;;;;;2.32;71.59;99528.95;1610037;87;27354;-75
2022/04/10 01:16:42;;;;;;;7.00;4.47;;;;;;;2.30;71.56;99537.23;1583101;90;25504;-76
2022/04/10 01:19:11;;;;;;;9.25;5.12;;;;;;;2.27;71.43;99532.97;1610709;88;25431;-77
2022/04/10 01:21:44;;;;;;;9.15;4.87;;;;;;;2.24;72.41;99541.77;1583180;90;25708;-75
2022/04/10 01:24:11;;;;;;;7.37;5.00;;;;;;;2.21;71.86;99542.33;1609977;89;25544;-75
2022/04/10 01:26:38;;;;;;;7.80;5.53;;;;;;;2.18;71.63;99538.05;1583296;90;27322;-76
2022/04/10 01:29:13;;;;;;;8.13;5.22;;;;;;;2.16;72.06;99542.86;1642242;84;25698;-76
2022/04/10 01:31:46;;;;;;;11.63;4.90;;;;;;;2.14;72.33;99541.80;1693191;84;25491;-76
2022/04/10 01:34:15;;;;;;;12.10;5.40;;;;;;;2.11;72.68;99546.36;1695235;84;25788;-76
2022/04/10 01:36:44;;;;;;;8.90;5.12;;;;;;;2.09;72.43;99549.02;1695319;84;25288;-76
2022/04/10 01:39:15;;;;;;;12.28;5.40;;;;;;;2.06;72.59;99545.04;1690395;84;27362;-76
2022/04/10 01:41:42;;;;;;;10.23;5.05;;;;;;;2.04;72.07;99551.16;1693426;84;25423;-76
2022/04/10 01:44:10;;;;;;;10.48;5.08;;;;;;;2.01;72.22;99551.69;1720806;83;25411;-76
2022/04/10 01:46:37;;;;;;;9.63;5.45;;;;;;;1.97;72.41;99554.10;1693475;84;25623;-77
2022/04/10 01:49:39;;;;;;;7.87;4.80;;;;;;;1.94;72.63;99565.84;1721599;83;25641;-75
2022/04/10 01:52:16;;;;;;;11.08;5.22;;;;;;;1.89;72.90;99568.52;1695321;84;25904;-76
2022/04/10 01:54:43;;;;;;;9.33;4.53;;;;;;;1.86;73.42;99568.54;1666711;84;25557;-76
2022/04/10 01:57:10;;;;;;;9.90;5.28;;;;;;;1.84;73.20;99569.34;1720933;83;25468;-76
2022/04/10 01:59:36;;;;;;;12.03;4.95;;;;;;;1.81;73.23;99565.33;1693487;84;25626;-76
2022/04/10 02:02:03;;;;;;;8.23;4.92;;;;;;;1.79;73.15;99567.48;1720553;83;25505;-76
2022/04/10 02:04:30;;;;;;;10.03;4.83;;;;;;;1.77;73.20;99572.80;1694660;84;27921;-76
2022/04/10 02:06:57;;;;;;;8.85;5.28;;;;;;;1.75;73.52;99581.61;1694586;84;25646;-76
2022/04/10 02:09:23;;;;;;;9.63;4.90;;;;;;;1.73;73.28;99585.08;1694720;84;25490;-76
2022/04/10 02:11:54;;;;;;;8.85;4.50;;;;;;;1.67;73.09;99587.74;1694693;84;25644;-76
2022/04/10 02:14:24;;;;;;;8.98;4.37;;;;;;;1.66;73.36;99593.34;1702786;84;25439;-76
2022/04/10 02:16:50;;;;;;;9.03;4.80;;;;;;;1.61;73.16;99586.13;1702820;84;27374;-76
2022/04/10 02:19:34;;;;;;;11.15;4.65;;;;;;;1.59;73.73;99594.94;1704186;84;25552;-76
2022/04/10 02:22:10;;;;;;;8.83;5.05;;;;;;;1.55;74.10;99588.55;1675123;85;25360;-76
2022/04/10 02:24:36;;;;;;;12.95;4.62;;;;;;;1.53;73.83;99597.86;1674743;85;25633;-76
2022/04/10 02:27:03;;;;;;;7.37;4.37;;;;;;;1.49;73.78;99594.93;1674958;85;25685;-75
2022/04/10 02:29:29;;;;;;;8.68;4.28;;;;;;;1.46;73.69;99610.94;1674853;85;27433;-76
2022/04/10 02:31:55;;;;;;;9.63;4.25;;;;;;;1.44;74.16;99610.92;1674732;85;25710;-75
2022/04/10 02:34:23;;;;;;;8.98;4.42;;;;;;;1.40;74.09;99609.86;1674892;85;25525;-76
2022/04/10 02:36:50;;;;;;;9.38;4.67;;;;;;;1.39;74.29;99613.03;1674832;85;25627;-76
2022/04/10 02:39:16;;;;;;;6.85;4.35;;;;;;;1.35;74.23;99609.31;1674961;85;25720;-76
2022/04/10 02:41:42;;;;;;;7.30;4.10;;;;;;;1.32;75.49;99620.49;1674876;85;27289;-76
2022/04/10 02:44:09;;;;;;;7.67;4.37;;;;;;;1.28;74.56;99618.09;1674791;85;25526;-76
2022/04/10 02:46:35;;;;;;;8.53;4.17;;;;;;;1.25;74.71;99612.75;1680022;85;25513;-76
2022/04/10 02:49:23;;;;;;;13.30;5.35;;;;;;;1.21;74.59;99614.35;1686717;83;26136;-76
2022/04/10 02:54:36;;;;;;;11.73;4.83;;;;;;;1.14;74.79;99615.66;1603266;89;27284;-75
2022/04/10 02:57:02;;;;;;;8.40;4.67;;;;;;;1.10;75.07;99609.52;1603207;89;25636;-76
2022/04/10 02:59:29;;;;;;;8.20;4.12;;;;;;;1.07;75.11;99615.89;1603371;89;25687;-75
2022/04/10 03:01:55;;;;;;;8.28;4.30;;;;;;;1.05;75.04;99619.36;1603327;89;26240;-75
2022/04/10 03:04:22;;;;;;;11.15;4.70;;;;;;;1.01;74.80;99624.41;1603287;89;25478;-75
2022/04/10 03:06:48;;;;;;;12.28;4.97;;;;;;;1.00;75.23;99631.33;1603201;89;27611;-76
2022/04/10 03:09:14;;;;;;;11.22;4.80;;;;;;;0.97;75.37;99630.52;1603204;89;25487;-75
2022/04/10 03:11:41;;;;;;;10.55;4.92;;;;;;;0.91;75.46;99633.16;1603221;89;25609;-74
2022/04/10 03:14:07;;;;;;;11.53;4.72;;;;;;;0.88;75.40;99636.34;1603115;89;25669;-76
2022/04/10 03:16:34;;;;;;;9.35;4.30;;;;;;;0.86;75.87;99635.02;1603111;89;25779;-76
2022/04/10 03:19:06;;;;;;;8.88;4.42;;;;;;;0.81;75.89;99640.31;1603975;89;27965;-75
2022/04/10 03:21:34;;;;;;;8.53;4.62;;;;;;;0.77;75.70;99642.70;1603917;89;25873;-76
2022/04/10 03:24:02;;;;;;;10.88;4.50;;;;;;;0.74;75.94;99653.32;1603062;89;25799;-76
2022/04/10 03:26:29;;;;;;;8.75;4.75;;;;;;;0.71;75.82;99652.50;1603210;89;25687;-76
2022/04/10 03:28:56;;;;;;;9.13;4.62;;;;;;;0.67;75.88;99652.77;1641546;84;25417;-76
2022/04/10 03:31:23;;;;;;;10.00;4.85;;;;;;;0.65;76.19;99650.89;1693176;84;27309;-76
2022/04/10 03:33:51;;;;;;;10.30;4.70;;;;;;;0.62;76.18;99652.73;1661166;86;25421;-76
2022/04/10 03:36:18;;;;;;;9.83;4.65;;;;;;;0.60;76.36;99649.54;1693149;84;25485;-76
2022/04/10 03:38:44;;;;;;;7.83;4.45;;;;;;;0.59;77.17;99648.47;1661135;86;25679;-76
2022/04/10 03:41:11;;;;;;;11.03;4.58;;;;;;;0.56;77.59;99653.76;1693186;84;25467;-75
2022/04/10 03:43:37;;;;;;;9.68;4.72;;;;;;;0.53;76.78;99653.77;1638129;86;27356;-75
2022/04/10 03:46:04;;;;;;;7.22;4.08;;;;;;;0.53;77.34;99651.64;1693112;84;25284;-75
2022/04/10 03:48:57;;;;;;;9.03;4.00;;;;;;;0.53;76.78;99650.30;1661947;86;25587;-76
2022/04/10 03:51:50;;;;;;;6.90;3.95;;;;;;;0.52;77.14;99656.67;1709797;83;26134;-75
2022/04/10 03:54:17;;;;;;;8.28;4.72;;;;;;;0.51;77.32;99659.88;1734763;82;25621;-76
2022/04/10 03:56:43;;;;;;;10.68;4.50;;;;;;;0.53;77.57;99660.41;1734512;82;27331;-76
2022/04/10 03:59:10;;;;;;;7.87;4.78;;;;;;;0.53;77.30;99667.06;1734525;82;25640;-76
2022/04/10 04:01:36;;;;;;;8.83;4.10;;;;;;;0.55;77.39;99669.47;1734592;82;25702;-76
2022/04/10 04:04:03;;;;;;;11.15;4.28;;;;;;;0.57;78.28;99679.33;1734521;82;25654;-77
2022/04/10 04:06:29;;;;;;;7.83;3.87;;;;;;;0.58;77.46;99669.47;1734589;82;25600;-76
2022/04/10 04:08:56;;;;;;;10.20;4.25;;;;;;;0.58;77.46;99676.13;1734532;82;27352;-76
2022/04/10 04:11:22;;;;;;;8.85;3.75;;;;;;;0.61;77.82;99676.95;1734505;82;25634;-76
2022/04/10 04:13:49;;;;;;;8.48;3.50;;;;;;;0.62;77.79;99681.22;1710000;82;25442;-75
2022/04/10 04:16:15;;;;;;;11.25;4.47;;;;;;;0.64;77.88;99688.42;1734477;82;26333;-76
2022/04/10 04:18:51;;;;;;;5.83;4.17;;;;;;;0.65;77.68;99683.38;1735262;82;25337;-75
2022/04/10 04:21:20;;;;;;;7.12;4.30;;;;;;;0.68;78.00;99687.66;1734912;82;25680;-76
2022/04/10 04:23:48;;;;;;;9.68;4.45;;;;;;;0.71;77.80;99688.98;1734321;82;25589;-76
2022/04/10 04:26:15;;;;;;;8.68;4.08;;;;;;;0.74;77.68;99690.59;1687977;83;25632;-74
2022/04/10 04:28:41;;;;;;;7.45;4.40;;;;;;;0.77;77.90;99691.13;1764696;79;25588;-75
2022/04/10 04:31:08;;;;;;;13.58;4.53;;;;;;;0.78;77.68;99698.07;1804459;79;25615;-75
2022/04/10 04:33:34;;;;;;;7.62;4.50;;;;;;;0.82;78.19;99697.81;1804379;79;27469;-75
2022/04/10 04:36:00;;;;;;;9.33;4.85;;;;;;;0.86;78.23;99703.70;1804304;79;25604;-75
2022/04/10 04:38:27;;;;;;;8.73;4.28;;;;;;;0.92;78.12;99711.20;1804339;79;25604;-75
2022/04/10 04:40:53;;;;;;;8.53;4.22;;;;;;;0.96;78.22;99712.82;1804343;79;25620;-76
2022/04/10 04:43:21;;;;;;;11.45;4.50;;;;;;;0.98;77.85;99718.14;1804436;79;25590;-75
2022/04/10 04:45:47;;;;;;;7.90;4.53;;;;;;;1.03;77.67;99716.05;1804342;78;28016;-75
2022/04/10 04:48:28;;;;;;;9.68;4.00;;;;;;;1.08;77.85;99718.73;1804441;79;25423;-75
2022/04/10 04:50:55;;;;;;;9.90;4.53;;;;;;;1.11;77.67;99720.34;1776676;78;25486;-76
2022/04/10 04:53:22;;;;;;;8.85;3.95;;;;;;;1.18;77.89;99727.30;1755405;81;26171;-76
2022/04/10 04:55:49;;;;;;;10.30;4.70;;;;;;;1.23;77.97;99726.78;1756727;81;25485;-76
2022/04/10 04:58:15;;;;;;;10.45;4.72;;;;;;;1.28;77.83;99729.47;1772260;81;27998;-76
2022/04/10 05:00:42;;;;;;;9.28;4.17;;;;;;;1.36;77.95;99731.35;1771972;80;25600;-76
2022/04/10 05:03:08;;;;;;;10.88;4.33;;;;;;;1.43;77.78;99739.89;1772042;80;25529;-76
2022/04/10 05:05:34;;;;;;;12.95;4.70;;;;;;;1.51;78.24;99742.06;1772196;81;25656;-76
2022/04/10 05:08:03;;;;;;;12.43;3.90;;;;;;;1.59;77.65;99747.43;1772028;80;25521;-76
2022/04/10 05:10:29;;;;;;;7.50;3.95;;;;;;;1.65;77.54;99744.52;1756914;81;28008;-77
2022/04/10 05:12:56;;;;;;;7.80;4.05;;;;;;;1.72;77.61;99746.94;1771901;81;25677;-76
2022/04/10 05:15:23;;;;;;;8.40;3.80;;;;;;;1.81;77.65;99753.88;1772152;81;25414;-75
2022/04/10 05:17:51;;;;;;;15.05;5.03;;;;;;;1.89;77.28;99751.22;1772081;81;25613;-76
2022/04/10 05:20:23;;;;;;;13.25;4.62;;;;;;;1.96;77.06;99747.24;1756487;81;25587;-76
2022/04/10 05:22:51;;;;;;;7.92;3.65;;;;;;;2.04;77.00;99744.56;1772666;81;27319;-76
2022/04/10 05:25:18;;;;;;;12.85;4.12;;;;;;;2.12;77.08;99745.38;1772026;81;25753;-75
2022/04/10 05:27:45;;;;;;;7.47;3.50;;;;;;;2.20;76.75;99735.52;1756718;81;25404;-75
2022/04/10 05:30:13;;;;;;;9.73;3.77;;;;;;;2.30;76.60;99745.91;1772243;81;25509;-76
2022/04/10 05:32:42;;;;;;;12.30;3.98;;;;;;;2.36;76.23;99746.98;1772203;80;25475;-75
2022/04/10 05:35:11;;;;;;;9.38;3.67;;;;;;;2.45;76.10;99749.12;1772230;81;27469;-76
2022/04/10 05:37:37;;;;;;;10.20;4.33;;;;;;;2.56;75.98;99754.19;1772029;80;25499;-76
2022/04/10 05:40:06;;;;;;;12.40;4.92;;;;;;;2.66;75.71;99752.05;1772227;80;25545;-76
2022/04/10 05:42:32;;;;;;;7.55;4.25;;;;;;;2.80;75.70;99761.09;1772173;81;25625;-76
2022/04/10 05:45:03;;;;;;;11.05;4.30;;;;;;;2.93;75.35;99762.95;1772161;81;25611;-76
2022/04/10 05:47:29;;;;;;;9.60;3.95;;;;;;;3.08;74.83;99765.59;1772098;81;27379;-77
2022/04/10 05:50:04;;;;;;;9.05;4.58;;;;;;;3.19;74.49;99763.67;1780014;79;25660;-77
2022/04/10 05:52:37;;;;;;;8.65;2.98;;;;;;;3.38;74.43;99772.44;1805258;79;25436;-77
2022/04/10 05:55:05;;;;;;;7.53;3.05;;;;;;;3.55;73.64;99760.85;1818175;78;25618;-77
2022/04/10 05:57:32;;;;;;;9.70;3.33;;;;;;;3.69;73.34;99768.52;1818249;78;25527;-77
2022/04/10 05:59:58;;;;;;;9.55;4.05;;;;;;;3.86;72.57;99775.40;1818180;78;27895;-76
2022/04/10 06:02:25;;;;;;;10.90;3.60;;;;;;;4.00;72.51;99771.05;1790763;78;25606;-77
2022/04/10 06:04:51;;;;;;;10.60;3.92;;;;;;;4.19;72.03;99767.16;1818243;78;25578;-77
2022/04/10 06:07:18;;;;;;;10.90;3.80;;;;;;;4.35;71.49;99767.05;1818156;78;25622;-76
2022/04/10 06:09:45;;;;;;;11.40;4.10;;;;;;;4.53;71.24;99762.34;1818226;78;25527;-75
2022/04/10 06:12:11;;;;;;;16.35;4.25;;;;;;;4.69;70.41;99754.95;1818196;78;27325;-76
2022/04/10 06:14:38;;;;;;;11.28;4.08;;;;;;;4.88;69.93;99767.64;1818051;78;25762;-77
2022/04/10 06:17:07;;;;;;;11.30;4.08;;;;;;;5.04;69.29;99763.73;1818252;78;25451;-76
2022/04/10 06:19:39;;;;;;;12.67;4.23;;;;;;;5.21;69.48;99772.11;1820142;78;25620;-75
2022/04/10 06:22:07;;;;;;;11.03;4.20;;;;;;;5.49;69.33;99770.97;1789691;78;25558;-77
2022/04/10 06:24:33;;;;;;;9.33;4.15;;;;;;;5.79;69.50;99782.41;1818117;78;27300;-77
2022/04/10 06:27:00;;;;;;;11.30;3.40;;;;;;;6.09;68.12;99781.73;1818047;78;25380;-77
2022/04/10 06:29:26;;;;;;;8.30;2.98;;;;;;;6.28;68.37;99783.88;1818034;78;25515;-77
2022/04/10 06:31:54;;;;;;;8.88;3.40;;;;;;;6.57;67.95;99779.37;1818128;78;25573;-77
2022/04/10 06:34:21;;;;;;;12.93;3.52;;;;;;;6.82;66.27;99774.91;1818186;78;25592;-77
2022/04/10 06:36:48;;;;;;;8.38;3.20;;;;;;;7.03;65.91;99781.25;1818071;78;27387;-77
2022/04/10 06:39:16;;;;;;;6.75;3.83;;;;;;;7.25;65.52;99784.61;1817901;78;25609;-77
2022/04/10 06:41:43;;;;;;;8.35;3.42;;;;;;;7.26;64.37;99787.00;1809004;78;25306;-77
2022/04/10 06:44:10;;;;;;;9.65;3.37;;;;;;;7.45;63.04;99790.14;1790722;79;26114;-77
2022/04/10 06:46:37;;;;;;;8.98;2.95;;;;;;;7.57;63.88;99782.34;1789562;79;25344;-77
2022/04/10 06:49:26;;;;;;;6.22;3.52;;;;;;;7.72;62.61;99793.91;1792751;79;27966;-77
2022/04/10 06:52:00;;;;;;;12.58;3.60;;;;;;;7.91;62.79;99794.55;1730547;82;25722;-77
2022/04/10 06:54:30;;;;;;;7.75;3.77;;;;;;;8.08;59.95;99806.03;1717156;83;25594;-76
2022/04/10 06:56:56;;;;;;;9.50;3.37;;;;;;;8.06;60.60;99804.76;1718767;83;25634;-76
2022/04/10 06:59:22;;;;;;;9.38;3.60;;;;;;;8.17;60.72;99804.76;1715481;83;25740;-77
2022/04/10 07:01:49;;;;;;;7.65;3.58;;;;;;;8.28;60.42;99804.78;1715762;83;27408;-77
2022/04/10 07:04:15;;;;;;;7.95;3.67;;;;;;;8.46;60.37;99802.23;1717048;83;25709;-77
2022/04/10 07:06:46;;;;;;;12.35;3.92;;;;;;;8.78;60.54;99800.64;1726966;83;25773;-76
2022/04/10 07:09:10;;;;;;;9.08;3.58;;;;;;;9.15;60.43;99797.23;1721555;83;25719;-77
2022/04/10 07:11:37;;;;;;;4.45;3.40;;;;;;;9.45;57.88;99800.74;1719278;83;25700;-76
2022/04/10 07:14:04;;;;;;;10.03;4.00;;;;;;;9.60;58.40;99804.92;1713295;83;27338;-77
2022/04/10 07:16:30;;;;;;;7.03;3.45;;;;;;;9.68;56.59;99797.40;1730921;81;25898;-76
2022/04/10 07:19:15;;;;;;;9.30;3.33;;;;;;;9.43;55.13;99801.61;1733824;82;25428;-77
2022/04/10 07:24:29;;;;;;;8.03;4.25;;;;;;;8.72;56.03;99814.00;1744936;82;25560;-76
2022/04/10 07:26:55;;;;;;;9.50;3.87;;;;;;;8.89;55.84;99809.26;1721829;82;27480;-77
2022/04/10 07:29:22;;;;;;;12.10;5.28;;;;;;;9.20;57.33;99815.76;1748480;82;25764;-75
2022/04/10 07:31:49;;;;;;;6.70;4.08;;;;;;;9.35;55.85;99813.42;1746648;82;25643;-76
2022/04/10 07:34:15;;;;;;;6.17;3.35;;;;;;;9.31;55.17;99809.77;1746675;82;26250;-72
2022/04/10 07:36:42;;;;;;;7.08;3.75;;;;;;;9.44;53.58;99814.02;1807052;78;25734;-73
2022/04/10 07:39:09;;;;;;;9.88;3.87;;;;;;;9.27;54.83;99814.75;1810384;78;27895;-73
2022/04/10 07:41:35;;;;;;;8.88;3.95;;;;;;;9.44;53.48;99823.47;1818564;78;25681;-74
2022/04/10 07:44:02;;;;;;;9.55;3.80;;;;;;;9.28;54.22;99823.88;1798572;78;25405;-74
2022/04/10 07:49:14;;;;;;;5.08;3.20;;;;;;;9.30;54.44;99828.41;1811721;78;25620;-74
2022/04/10 07:51:41;;;;;;;6.95;3.95;;;;;;;9.74;55.29;99829.91;1782349;78;27324;-73
2022/04/10 07:54:07;;;;;;;8.43;3.77;;;;;;;9.87;51.52;99843.03;1769070;81;25676;-73
2022/04/10 07:56:33;;;;;;;7.12;4.00;;;;;;;9.71;52.00;99832.67;1759516;81;25632;-74
2022/04/10 07:59:00;;;;;;;7.37;3.85;;;;;;;9.50;53.21;99843.80;1753633;81;25629;-74
2022/04/10 08:01:27;;;;;;;6.33;4.12;;;;;;;9.25;52.42;99838.00;1802987;78;25417;-74
2022/04/10 08:03:53;;;;;;;6.78;3.45;;;;;;;9.04;52.19;99840.45;1795944;78;27300;-73
2022/04/10 08:06:20;;;;;;;7.22;3.60;;;;;;;8.79;53.44;99849.41;1812250;78;25700;-73
2022/04/10 08:08:47;;;;;;;6.15;2.80;;;;;;;8.59;53.54;99852.04;1802379;78;25519;-73
2022/04/10 08:11:13;;;;;;;7.28;3.60;;;;;;;8.54;54.62;99847.33;1800459;78;25694;-73
2022/04/10 08:13:40;;;;;;;7.42;3.92;;;;;;;8.66;54.67;99850.27;1791520;79;25409;-73
2022/04/10 08:16:07;;;;;;;5.30;3.52;;;;;;;8.73;54.04;99858.72;1813659;78;27491;-73
2022/04/10 08:18:33;;;;;;;7.90;3.30;;;;;;;8.88;55.13;99856.77;1799785;78;25643;-73
2022/04/10 08:20:59;;;;;;;7.55;3.50;;;;;;;9.39;53.42;99861.39;1810166;78;25650;-73
2022/04/10 08:23:26;;;;;;;10.35;4.78;;;;;;;9.26;52.95;99855.79;1792865;79;25642;-74
2022/04/10 08:25:53;;;;;;;8.70;4.00;;;;;;;9.04;52.77;99867.95;1813477;78;25332;-72
2022/04/10 08:28:19;;;;;;;14.40;3.50;;;;;;;8.84;52.75;99864.67;1797210;78;27364;-73
2022/04/10 08:30:45;;;;;;;17.35;7.55;;;;;;;8.67;52.59;99866.70;1811703;78;25581;-74
2022/04/10 08:33:12;;;;;;;10.80;4.22;;;;;;;9.15;53.14;99859.86;1811535;78;25571;-73
2022/04/10 08:35:38;;;;;;;7.35;3.75;;;;;;;9.28;52.47;99875.70;1818379;78;25562;-73
2022/04/10 08:38:05;;;;;;;9.80;3.87;;;;;;;9.10;51.52;99877.52;1796037;78;25396;-73
2022/04/10 08:40:32;;;;;;;5.92;3.45;;;;;;;8.93;52.24;99883.61;1810358;78;27505;-73
2022/04/10 08:43:03;;;;;;;9.73;4.55;;;;;;;9.03;53.31;99894.14;1804481;78;25621;-72
2022/04/10 08:45:30;;;;;;;8.13;3.70;;;;;;;9.08;52.73;99894.58;1806706;78;25588;-73
2022/04/10 08:47:56;;;;;;;4.72;2.37;;;;;;;9.01;52.04;99892.84;1814894;78;25574;-73
2022/04/10 08:50:26;;;;;;;6.70;3.05;;;;;;;8.86;51.31;99893.48;1798247;78;25548;-73
2022/04/10 08:52:58;;;;;;;;;;;;;;;8.81;50.98;99891.47;1808768;78;28007;-73
2022/04/10 08:55:26;;;;;;;9.55;3.30;;;;;;;8.79;51.62;99899.86;1780764;79;25557;-73
2022/04/10 08:57:53;;;;;;;4.83;2.85;;;;;;;8.60;51.00;99900.83;1808738;79;25635;-73
2022/04/10 09:00:22;;;;;;;6.55;3.45;;;;;;;8.50;51.44;99911.84;1778886;80;26159;-73
2022/04/10 09:02:51;;;;;;;6.67;3.05;;;;;;;8.43;51.86;99907.42;1769276;81;25464;-74
2022/04/10 09:05:21;;;;;;;7.20;2.47;;;;;;;8.42;51.94;99913.88;1802002;78;27367;-74
2022/04/10 09:08:14;;;;;;;8.03;3.15;;;;;;;8.25;51.38;99909.12;1820683;78;25705;-73
2022/04/10 09:11:11;;;;;;;12.33;4.12;;;;;;;8.10;51.32;99908.89;1809062;78;25727;-74
2022/04/10 09:13:47;;;;;;;7.42;3.37;;;;;;;7.85;51.87;99915.05;1746301;81;26128;-74
2022/04/10 09:16:20;;;;;;;6.58;3.58;;;;;;;7.66;52.24;99913.81;1753347;81;25562;-73
2022/04/10 09:18:58;;;;;;;8.38;3.42;;;;;;;7.47;52.51;99917.11;1723664;83;27333;-73
2022/04/10 09:21:32;;;;;;;6.90;2.95;;;;;;;7.35;53.27;99913.55;1747750;81;25682;-73
2022/04/10 09:24:12;;;;;;;11.35;3.62;;;;;;;7.22;53.03;99915.66;1756413;81;25800;-73
2022/04/10 09:26:52;;;;;;;6.87;3.30;;;;;;;7.17;53.16;99919.78;1736880;81;26416;-73
2022/04/10 09:29:20;;;;;;;;;;;;;;;7.04;53.24;99912.73;1751536;81;25496;-74
2022/04/10 09:31:47;;;;;;;6.55;2.55;;;;;;;6.94;53.38;99919.63;1715462;82;27548;-73
2022/04/10 09:34:18;;;;;;;8.90;3.30;;;;;;;6.89;53.93;99926.42;1752861;81;25643;-73
2022/04/10 09:36:47;;;;;;;6.72;3.25;;;;;;;6.84;54.26;99940.73;1722965;83;25757;-73
2022/04/10 09:39:18;;;;;;;6.95;3.83;;;;;;;6.77;54.06;99928.77;1745999;81;25796;-73
2022/04/10 09:41:46;;;;;;;7.28;3.08;;;;;;;6.60;53.99;99927.95;1742922;81;25591;-72
2022/04/10 09:44:23;;;;;;;6.00;3.02;;;;;;;6.53;54.33;99925.63;1753401;81;27273;-73
2022/04/10 09:47:06;;;;;;;10.25;3.47;;;;;;;6.52;54.78;99929.38;1738584;81;25699;-73
2022/04/10 09:49:37;;;;;;;5.97;3.10;;;;;;;6.54;54.76;99953.55;1733355;81;25695;-74
2022/04/10 09:52:08;;;;;;;7.87;3.62;;;;;;;6.47;54.86;99930.80;1811548;79;25807;-74
2022/04/10 09:54:46;;;;;;;10.88;3.60;;;;;;;6.48;55.21;99939.13;1810482;78;25628;-74
2022/04/10 09:57:34;;;;;;;9.20;3.37;;;;;;;6.51;54.87;99927.80;1798209;78;27317;-74
2022/04/10 10:00:03;;;;;;;10.68;3.42;;;;;;;6.59;55.32;99939.25;1765627;80;25770;-73
2022/04/10 10:02:30;;;;;;;11.65;4.20;;;;;;;6.80;55.51;99938.39;1782883;80;25321;-73
2022/04/10 10:04:57;;;;;;;7.70;3.27;;;;;;;7.00;55.46;99944.53;1771288;80;25753;-73
2022/04/10 10:07:24;;;;;;;6.55;3.83;;;;;;;7.14;54.81;99949.98;1774949;80;25595;-73
2022/04/10 10:09:51;;;;;;;9.33;4.28;;;;;;;7.08;54.32;99947.37;1766060;80;27319;-72
2022/04/10 10:12:18;;;;;;;8.20;3.90;;;;;;;7.01;54.35;99943.45;1716408;82;25780;-73
2022/04/10 10:14:45;;;;;;;11.78;3.98;;;;;;;6.96;54.59;99931.44;1738239;82;25784;-73
2022/04/10 10:17:12;;;;;;;7.42;3.90;;;;;;;7.02;54.84;99949.89;1780241;79;25594;-72
2022/04/10 10:19:43;;;;;;;8.55;4.12;;;;;;;7.03;54.83;99947.98;1769393;81;25444;-73
2022/04/10 10:22:13;;;;;;;7.30;3.95;;;;;;;7.10;55.29;99942.50;1791173;79;27346;-73
2022/04/10 10:25:02;;;;;;;7.33;3.92;;;;;;;7.36;55.42;99949.35;1781133;79;25700;-73
2022/04/10 10:28:06;;;;;;;8.00;3.90;;;;;;;7.84;56.31;99949.80;1779520;78;25618;-72
2022/04/10 10:30:46;;;;;;;11.40;3.95;;;;;;;8.31;54.95;99943.48;1750298;81;26196;-73
2022/04/10 10:33:23;;;;;;;9.35;3.40;;;;;;;8.54;53.59;99943.81;1715026;82;25322;-72
2022/04/10 10:35:53;;;;;;;12.90;3.85;;;;;;;8.53;52.32;99942.23;1739668;82;27381;-73
2022/04/10 10:38:30;;;;;;;;;;;;;;;8.28;51.54;99944.89;1746340;81;25364;-72
2022/04/10 10:41:21;;;;;;;7.37;3.40;;;;;;;8.13;51.68;99957.34;1748005;81;25626;-73
2022/04/10 10:43:48;;;;;;;7.80;3.35;;;;;;;7.97;51.70;99946.88;1794235;78;26312;-73
2022/04/10 10:49:22;;;;;;;12.43;3.58;;;;;;;7.52;51.56;99954.70;1734156;82;27345;-73
2022/04/10 10:51:51;;;;;;;7.30;3.65;;;;;;;7.29;51.99;99961.28;1738968;82;25756;-73
2022/04/10 10:54:35;;;;;;;10.48;3.42;;;;;;;7.15;52.49;99970.39;1739266;82;25446;-73
2022/04/10 10:57:32;;;;;;;8.03;4.10;;;;;;;7.13;52.82;99961.27;1739035;82;25656;-74
2022/04/10 11:00:09;;;;;;;9.88;3.95;;;;;;;7.24;53.24;99970.78;1720267;82;25579;-74
2022/04/10 11:02:37;;;;;;;8.38;4.33;;;;;;;7.29;53.23;99962.63;1739101;82;27323;-73
2022/04/10 11:05:14;;;;;;;11.93;4.72;;;;;;;7.33;52.96;99966.87;1738951;82;25755;-73
2022/04/10 11:07:41;;;;;;;6.55;3.80;;;;;;;7.35;52.91;99968.71;1709779;83;25607;-72
2022/04/10 11:10:11;;;;;;;7.85;3.58;;;;;;;7.47;53.56;99974.45;1705585;82;25688;-73
2022/04/10 11:12:50;;;;;;;9.30;4.00;;;;;;;7.58;51.87;99965.63;1731059;82;25769;-73
2022/04/10 11:15:22;;;;;;;12.33;3.67;;;;;;;7.49;51.81;99964.70;1693531;83;27302;-72
2022/04/10 11:17:52;;;;;;;8.13;3.77;;;;;;;7.39;52.12;99971.08;1723886;83;25807;-73
2022/04/10 11:20:21;;;;;;;8.50;3.60;;;;;;;7.35;52.72;99971.95;1732268;82;25398;-74
2022/04/10 11:23:00;;;;;;;6.30;3.58;;;;;;;7.40;53.24;99969.97;1718726;83;26562;-73
2022/04/10 11:25:38;;;;;;;8.48;3.80;;;;;;;7.60;53.16;99973.41;1732150;82;25744;-73
2022/04/10 11:28:04;;;;;;;9.08;3.70;;;;;;;7.62;52.81;99972.56;1733798;82;27342;-72
2022/04/10 11:30:36;;;;;;;10.58;4.28;;;;;;;7.59;52.24;99977.98;1741669;82;25482;-73
2022/04/10 11:33:06;;;;;;;7.12;3.67;;;;;;;7.46;52.05;99979.56;1743458;81;25269;-71
2022/04/10 11:35:35;;;;;;;;;;;;;;;7.30;51.91;99988.98;1738763;82;25763;-72
2022/04/10 11:38:13;;;;;;;8.30;3.40;;;;;;;7.19;52.32;99986.22;1740326;82;25607;-71
2022/04/10 11:40:47;;;;;;;8.23;3.92;;;;;;;7.22;53.22;99985.61;1736835;82;27922;-72
2022/04/10 11:43:17;;;;;;;8.13;3.37;;;;;;;7.38;53.01;99986.17;1736232;81;26508;-73
2022/04/10 11:45:50;;;;;;;6.87;3.92;;;;;;;7.52;53.43;99996.97;1725720;82;25415;-71
2022/04/10 11:48:17;;;;;;;10.80;3.62;;;;;;;7.59;52.82;99987.95;1695922;83;25930;-71
2022/04/10 11:50:43;;;;;;;11.70;5.35;;;;;;;7.56;52.56;99983.98;1675430;85;25567;-71
2022/04/10 11:53:13;;;;;;;11.90;5.12;;;;;;;7.55;52.55;99988.31;1699835;84;27373;-71
2022/04/10 11:55:45;;;;;;;;;;;;;;;7.53;52.58;99989.95;1657225;85;25798;-73
2022/04/10 11:58:21;;;;;;;10.10;3.95;;;;;;;7.52;52.90;99997.76;1671246;85;25615;-72
2022/04/10 12:00:58;;;;;;;10.70;4.62;;;;;;;7.49;52.33;100003.73;1667382;86;25685;-71
2022/04/10 12:03:30;;;;;;;8.65;4.50;;;;;;;7.37;52.40;100004.22;1664556;86;25742;-71
2022/04/10 12:05:58;;;;;;;10.03;5.12;;;;;;;7.26;52.55;100014.88;1678114;85;27966;-71